Codajas, Brazil
Current Conditions -  °F | °C
As of 6:00 AM on Saturday 29 Nov 2014 (Local Time) from SBEG Reporting Station
Haze Haze  
Wind Chill: 73°   Ceiling: Unl
Heat Index: 73°   Visibility: 3mi
Dew Point: 70°   Wind: 0mph
Humidity: 88%   Direction: NA
Pressure: 29.85"   Gusts: NA
Location:  3.82°S, 62.07°W
Report Text: SBEG 291000Z 00000KT 5000 BR FEW005 23/21 Q1011
Loading
Personal Weather Stations






























Interactive Weather Map New forecast layout! Learn more

10-Day Weather Forecast

Advertisements
Track Severe Weather on mobile